createdAt,value
2024-05-09T00:01:16.449Z,6.68
2024-05-09T00:03:48.157Z,6.67
2024-05-09T00:06:20.513Z,6.68
2024-05-09T00:08:51.947Z,6.67
2024-05-09T00:11:23.578Z,6.65
2024-05-09T00:13:55.290Z,6.63
2024-05-09T00:16:26.847Z,6.62
2024-05-09T00:18:58.421Z,6.59
2024-05-09T00:21:30.008Z,6.54
2024-05-09T00:24:01.480Z,6.51
2024-05-09T00:26:33.112Z,6.47
2024-05-09T00:29:04.655Z,6.44
2024-05-09T00:31:36.142Z,6.39
2024-05-09T00:34:07.675Z,6.39
2024-05-09T00:36:39.200Z,6.37
2024-05-09T00:39:10.634Z,6.30
2024-05-09T00:41:42.333Z,6.27
2024-05-09T00:44:13.951Z,6.26
2024-05-09T00:46:45.512Z,6.26
2024-05-09T00:49:17.167Z,6.24
2024-05-09T00:51:49.903Z,6.20
2024-05-09T00:54:22.447Z,6.18
2024-05-09T00:56:54.372Z,6.13
2024-05-09T00:59:26.025Z,6.08
2024-05-09T01:01:59.351Z,6.03
2024-05-09T01:04:30.945Z,6.02
2024-05-09T01:07:02.466Z,5.96
2024-05-09T01:09:34.686Z,5.92
2024-05-09T01:12:06.536Z,5.92
2024-05-09T01:14:38.177Z,5.91
2024-05-09T01:17:09.820Z,5.90
2024-05-09T01:19:42.231Z,5.86
2024-05-09T01:22:13.786Z,5.83
2024-05-09T01:24:45.253Z,5.82
2024-05-09T01:27:16.692Z,5.79
2024-05-09T01:29:48.156Z,5.75
2024-05-09T01:32:19.712Z,5.76
2024-05-09T01:34:51.296Z,5.75
2024-05-09T01:37:23.691Z,5.71
2024-05-09T01:39:55.131Z,5.70
2024-05-09T01:42:27.008Z,5.66
2024-05-09T01:44:58.487Z,5.64
2024-05-09T01:47:30.259Z,5.61
2024-05-09T01:50:02.141Z,5.58
2024-05-09T01:52:38.476Z,5.55
2024-05-09T01:55:09.890Z,5.42
2024-05-09T01:57:41.324Z,5.42
2024-05-09T02:00:15.722Z,5.39
2024-05-09T02:02:50.271Z,5.36
2024-05-09T02:05:21.985Z,5.32
2024-05-09T02:07:53.595Z,5.32
2024-05-09T02:10:31.771Z,5.28
2024-05-09T02:13:05.864Z,5.26
2024-05-09T02:15:37.361Z,5.25
2024-05-09T02:18:09.972Z,5.23
2024-05-09T02:20:43.300Z,5.24
2024-05-09T02:23:15.440Z,5.20
2024-05-09T02:25:47.027Z,5.20
2024-05-09T02:28:20.774Z,5.20
2024-05-09T02:30:52.212Z,5.19
2024-05-09T02:33:23.949Z,5.16
2024-05-09T02:35:55.520Z,5.10
2024-05-09T02:38:27.118Z,5.08
2024-05-09T02:40:58.617Z,5.05
2024-05-09T02:43:30.060Z,5.00
2024-05-09T02:46:01.713Z,4.98
2024-05-09T02:48:33.228Z,4.94
2024-05-09T02:51:04.919Z,4.91
2024-05-09T02:53:36.465Z,4.89
2024-05-09T02:56:08.010Z,4.88
2024-05-09T02:58:39.569Z,4.85
2024-05-09T03:01:11.232Z,4.84
2024-05-09T03:03:45.182Z,4.80
2024-05-09T03:06:16.707Z,4.78
2024-05-09T03:08:48.469Z,4.76
2024-05-09T03:11:24.034Z,4.78
2024-05-09T03:13:55.624Z,4.72
2024-05-09T03:16:27.386Z,4.71
2024-05-09T03:18:58.867Z,4.71
2024-05-09T03:21:30.351Z,4.67
2024-05-09T03:24:02.862Z,4.67
2024-05-09T03:26:34.466Z,4.66
2024-05-09T03:29:05.998Z,4.62
2024-05-09T03:31:38.876Z,4.65
2024-05-09T03:34:11.299Z,4.61
2024-05-09T03:36:45.600Z,4.63
2024-05-09T03:39:17.137Z,4.62
2024-05-09T03:41:48.583Z,4.65
2024-05-09T03:44:20.080Z,4.68
2024-05-09T03:46:51.700Z,4.71
2024-05-09T03:49:23.251Z,4.73
2024-05-09T03:51:54.754Z,4.74
2024-05-09T03:54:27.493Z,4.80
2024-05-09T03:56:58.985Z,4.82
2024-05-09T03:59:30.516Z,4.88
2024-05-09T04:02:02.201Z,4.93
2024-05-09T04:04:33.747Z,5.00
2024-05-09T04:07:05.326Z,5.05
2024-05-09T04:09:36.788Z,5.09
2024-05-09T04:12:08.403Z,5.17
2024-05-09T04:14:40.012Z,5.24
2024-05-09T04:17:11.620Z,5.36
2024-05-09T04:19:43.068Z,5.43
2024-05-09T04:22:14.508Z,5.50
2024-05-09T04:24:45.983Z,5.59
2024-05-09T04:27:17.424Z,5.66
2024-05-09T04:29:48.879Z,5.74
2024-05-09T04:32:20.434Z,5.83
2024-05-09T04:34:52.033Z,5.90
2024-05-09T04:37:23.533Z,5.99
2024-05-09T04:39:55.116Z,6.08
2024-05-09T04:42:26.601Z,6.17
2024-05-09T04:44:58.810Z,6.26
2024-05-09T04:47:30.590Z,6.40
2024-05-09T04:50:02.586Z,6.54
2024-05-09T04:52:34.108Z,6.70
2024-05-09T04:55:06.052Z,6.85
2024-05-09T04:57:37.513Z,7.01
2024-05-09T05:00:14.732Z,7.15
2024-05-09T05:02:53.253Z,7.30
2024-05-09T05:05:24.874Z,7.45
2024-05-09T05:07:56.838Z,7.58
2024-05-09T05:10:33.998Z,7.68
2024-05-09T05:13:19.995Z,7.84
2024-05-09T05:15:56.829Z,8.00
2024-05-09T05:18:29.628Z,8.19
2024-05-09T05:21:01.334Z,8.40
2024-05-09T05:23:32.952Z,8.66
2024-05-09T05:26:05.279Z,9.04
2024-05-09T05:28:36.831Z,9.43
2024-05-09T05:31:08.272Z,9.82
2024-05-09T05:33:39.780Z,10.18
2024-05-09T05:36:11.291Z,10.51
2024-05-09T05:38:43.015Z,10.72
2024-05-09T05:41:14.589Z,10.85
2024-05-09T05:43:46.158Z,10.91
2024-05-09T05:46:17.642Z,10.96
2024-05-09T05:48:49.427Z,10.97
2024-05-09T05:51:21.087Z,10.96
2024-05-09T05:53:52.660Z,11.05
2024-05-09T05:56:24.194Z,11.24
2024-05-09T05:58:55.702Z,11.39
2024-05-09T06:01:27.289Z,11.53
2024-05-09T06:03:59.048Z,11.69
2024-05-09T06:06:30.505Z,11.89
2024-05-09T06:09:01.954Z,12.13
2024-05-09T06:11:33.486Z,12.71
2024-05-09T06:14:05.543Z,13.36
2024-05-09T06:16:37.130Z,13.97
2024-05-09T06:19:08.658Z,14.55
2024-05-09T06:21:40.160Z,15.03
2024-05-09T06:24:11.690Z,15.31
2024-05-09T06:26:44.374Z,15.63
2024-05-09T06:29:15.900Z,15.94
2024-05-09T06:31:47.472Z,16.20
2024-05-09T06:34:19.479Z,16.24
2024-05-09T06:36:50.981Z,16.22
2024-05-09T06:39:23.472Z,16.31
2024-05-09T06:41:54.938Z,16.33
2024-05-09T06:44:26.852Z,16.38
2024-05-09T06:46:59.846Z,16.32
2024-05-09T06:49:32.738Z,16.34
2024-05-09T06:52:04.623Z,16.42
2024-05-09T06:54:37.638Z,16.31
2024-05-09T06:57:09.117Z,16.23
2024-05-09T06:59:40.679Z,16.25
2024-05-09T07:02:12.290Z,16.34
2024-05-09T07:04:43.800Z,16.37
2024-05-09T07:07:15.235Z,16.45
2024-05-09T07:09:46.727Z,16.60
2024-05-09T07:12:18.362Z,16.91
2024-05-09T07:14:50.510Z,17.27
2024-05-09T07:17:22.011Z,17.41
2024-05-09T07:19:53.793Z,17.61
2024-05-09T07:22:25.527Z,17.60
2024-05-09T07:24:57.138Z,17.53
2024-05-09T07:27:28.683Z,17.67
2024-05-09T07:30:00.819Z,17.77
2024-05-09T07:32:32.478Z,17.79
2024-05-09T07:35:04.196Z,17.73
2024-05-09T07:37:35.702Z,17.81
2024-05-09T07:40:11.948Z,18.09
2024-05-09T07:42:47.143Z,18.43
2024-05-09T07:53:37.273Z,18.92
2024-05-09T07:56:06.402Z,19.02
2024-05-09T07:58:38.645Z,19.07
2024-05-09T08:01:10.139Z,19.17
2024-05-09T08:03:42.907Z,19.29
2024-05-09T08:06:14.565Z,19.19
2024-05-09T08:08:47.025Z,19.22
2024-05-09T08:11:20.354Z,19.56
2024-05-09T08:13:51.898Z,19.79
2024-05-09T08:16:23.828Z,19.84
2024-05-09T08:18:55.522Z,19.91
2024-05-09T08:21:27.054Z,20.07
2024-05-09T08:23:58.511Z,19.86
2024-05-09T08:26:30.052Z,19.54
2024-05-09T08:29:01.512Z,19.38
2024-05-09T08:31:37.987Z,19.59
2024-05-09T08:34:10.046Z,19.69
2024-05-09T08:36:42.331Z,19.66
2024-05-09T08:39:13.834Z,19.76
2024-05-09T08:41:49.561Z,19.89
2024-05-09T08:44:21.176Z,19.74
2024-05-09T08:46:54.258Z,19.82
2024-05-09T08:49:26.970Z,19.83
2024-05-09T08:51:58.722Z,19.86
2024-05-09T08:54:30.555Z,19.85
2024-05-09T08:57:04.730Z,19.91
2024-05-09T08:59:42.604Z,20.19
2024-05-09T09:02:14.876Z,20.34
2024-05-09T09:05:03.065Z,20.58
2024-05-09T09:07:35.136Z,20.71
2024-05-09T09:10:08.580Z,20.91
2024-05-09T09:12:40.555Z,20.96
2024-05-09T09:15:12.163Z,21.09
2024-05-09T09:17:58.159Z,21.17
2024-05-09T09:20:36.410Z,21.20
2024-05-09T09:23:08.869Z,21.15
2024-05-09T09:25:40.714Z,20.99
2024-05-09T09:28:12.618Z,20.90
2024-05-09T09:30:44.430Z,20.88
2024-05-09T09:33:17.416Z,20.96
2024-05-09T09:35:48.914Z,21.10
2024-05-09T09:38:23.200Z,21.15
2024-05-09T09:40:54.776Z,20.94
2024-05-09T09:43:26.781Z,20.95
2024-05-09T09:46:00.681Z,21.00
2024-05-09T09:48:33.859Z,21.04
2024-05-09T09:51:07.762Z,21.07
2024-05-09T09:53:39.929Z,21.20
2024-05-09T09:56:11.956Z,21.25
2024-05-09T09:58:43.971Z,21.35
2024-05-09T10:01:15.525Z,21.30
2024-05-09T10:03:47.485Z,21.37
2024-05-09T10:06:19.518Z,21.34
2024-05-09T10:08:51.552Z,21.51
2024-05-09T10:11:23.831Z,21.81
2024-05-09T10:13:57.360Z,22.05
2024-05-09T10:16:32.392Z,22.18
2024-05-09T10:19:04.139Z,22.19
2024-05-09T10:21:46.267Z,22.27
2024-05-09T10:24:19.064Z,22.10
2024-05-09T10:26:56.568Z,21.83
2024-05-09T10:29:28.125Z,21.57
2024-05-09T10:31:59.686Z,21.48
2024-05-09T10:34:34.638Z,21.50
2024-05-09T10:37:06.257Z,21.55
2024-05-09T10:39:38.806Z,21.82
2024-05-09T10:42:10.333Z,21.90
2024-05-09T10:44:42.514Z,21.98
2024-05-09T10:47:15.021Z,22.18
2024-05-09T10:49:47.015Z,22.26
2024-05-09T10:52:22.438Z,22.63
2024-05-09T10:54:54.434Z,22.89
2024-05-09T10:57:27.090Z,23.20
2024-05-09T10:59:59.605Z,23.43
2024-05-09T11:02:31.785Z,23.50
2024-05-09T11:05:03.542Z,23.42
2024-05-09T11:07:35.118Z,23.57
2024-05-09T11:10:09.850Z,23.88
2024-05-09T11:12:45.909Z,23.97
2024-05-09T11:15:17.455Z,23.83
2024-05-09T11:17:49.058Z,23.50
2024-05-09T11:20:26.924Z,23.13
2024-05-09T11:23:06.088Z,22.68
2024-05-09T11:25:37.530Z,22.28
2024-05-09T11:28:09.089Z,21.87
2024-05-09T11:30:40.742Z,21.84
2024-05-09T11:33:13.405Z,21.98
2024-05-09T11:35:46.485Z,22.06
2024-05-09T11:38:17.967Z,22.04
2024-05-09T11:40:49.441Z,21.82
2024-05-09T11:43:21.144Z,21.75
2024-05-09T11:45:53.165Z,21.90
2024-05-09T11:48:25.795Z,22.02
2024-05-09T11:50:58.030Z,22.26
2024-05-09T11:53:29.585Z,22.13
2024-05-09T11:56:01.138Z,21.98
2024-05-09T11:58:34.636Z,22.08
2024-05-09T12:01:06.492Z,22.17
2024-05-09T12:03:38.345Z,22.22
2024-05-09T12:06:10.194Z,22.72
2024-05-09T12:08:41.738Z,23.03
2024-05-09T12:11:13.904Z,23.15
2024-05-09T12:13:45.443Z,23.36
2024-05-09T12:16:17.126Z,23.46
2024-05-09T12:18:48.864Z,23.54
2024-05-09T12:21:20.443Z,23.54
2024-05-09T12:23:51.975Z,23.40
2024-05-09T12:26:23.557Z,23.29
2024-05-09T12:28:54.996Z,23.25
2024-05-09T12:31:26.655Z,23.11
2024-05-09T12:34:00.291Z,22.95
2024-05-09T12:36:31.964Z,22.79
2024-05-09T12:39:06.220Z,22.63
2024-05-09T12:41:37.692Z,22.35
2024-05-09T12:44:09.120Z,22.14
2024-05-09T12:46:40.660Z,22.27
2024-05-09T12:49:13.807Z,22.26
2024-05-09T12:51:47.127Z,22.08
2024-05-09T12:54:18.627Z,22.10
2024-05-09T12:56:50.607Z,22.13
2024-05-09T12:59:22.082Z,22.36
2024-05-09T13:01:53.585Z,22.60
2024-05-09T13:04:25.381Z,22.94
2024-05-09T13:06:57.587Z,23.08
2024-05-09T13:09:29.183Z,23.05
2024-05-09T13:12:00.751Z,23.10
2024-05-09T13:14:32.270Z,22.97
2024-05-09T13:17:04.159Z,22.73
2024-05-09T13:19:35.662Z,22.43
2024-05-09T13:22:07.222Z,22.17
2024-05-09T13:24:38.734Z,21.95
2024-05-09T13:27:10.338Z,21.83
2024-05-09T13:29:44.301Z,21.83
2024-05-09T13:32:15.988Z,21.83
2024-05-09T13:34:47.585Z,21.95
2024-05-09T13:37:19.206Z,21.98
2024-05-09T13:39:50.923Z,21.97
2024-05-09T13:42:22.443Z,22.02
2024-05-09T13:44:54.339Z,21.99
2024-05-09T13:47:25.927Z,22.03
2024-05-09T13:49:57.862Z,22.01
2024-05-09T13:52:29.288Z,22.13
2024-05-09T13:55:00.795Z,22.14
2024-05-09T13:57:32.391Z,22.02
2024-05-09T14:00:07.013Z,22.08
2024-05-09T14:02:39.496Z,22.15
2024-05-09T14:05:11.261Z,22.01
2024-05-09T14:07:43.934Z,21.91
2024-05-09T14:10:22.967Z,22.00
2024-05-09T14:13:01.136Z,22.02
2024-05-09T14:15:32.899Z,22.16
2024-05-09T14:18:04.945Z,22.38
2024-05-09T14:20:36.474Z,22.51
2024-05-09T14:23:08.065Z,22.80
2024-05-09T14:25:42.707Z,22.84
2024-05-09T14:28:15.427Z,22.92
2024-05-09T14:30:47.014Z,22.84
2024-05-09T14:33:23.526Z,22.91
2024-05-09T14:35:55.459Z,22.76
2024-05-09T14:38:27.309Z,22.63
2024-05-09T14:40:59.013Z,22.37
2024-05-09T14:43:30.766Z,22.30
2024-05-09T14:46:02.446Z,22.29
2024-05-09T14:48:34.130Z,22.29
2024-05-09T14:51:05.932Z,22.01
2024-05-09T14:53:37.406Z,21.70
2024-05-09T14:56:09.293Z,21.57
2024-05-09T14:58:40.917Z,21.43
2024-05-09T15:01:12.477Z,21.18
2024-05-09T15:03:44.261Z,20.99
2024-05-09T15:06:17.040Z,20.79
2024-05-09T15:08:56.730Z,20.70
2024-05-09T15:11:28.374Z,20.39
2024-05-09T15:13:59.882Z,20.32
2024-05-09T15:16:31.490Z,20.40
2024-05-09T15:19:03.532Z,20.50
2024-05-09T15:21:35.171Z,20.59
2024-05-09T15:24:06.707Z,20.58
2024-05-09T15:26:38.290Z,20.49
2024-05-09T15:29:10.173Z,20.59
2024-05-09T15:31:41.724Z,20.66
2024-05-09T15:34:13.303Z,20.60
2024-05-09T15:36:47.895Z,20.55
2024-05-09T15:39:19.441Z,20.48
2024-05-09T15:41:56.058Z,20.40
2024-05-09T15:44:27.639Z,20.10
2024-05-09T15:46:59.123Z,19.81
2024-05-09T15:49:30.901Z,19.65
2024-05-09T15:52:02.614Z,19.58
2024-05-09T15:54:34.156Z,19.48
2024-05-09T15:57:07.126Z,19.43
2024-05-09T15:59:38.860Z,19.40
2024-05-09T16:02:11.543Z,19.45
2024-05-09T16:04:43.476Z,19.37
2024-05-09T16:07:15.110Z,19.28
2024-05-09T16:09:46.599Z,19.26
2024-05-09T16:12:18.099Z,19.24
2024-05-09T16:14:50.795Z,19.19
2024-05-09T16:17:22.900Z,19.09
2024-05-09T16:19:54.712Z,18.84
2024-05-09T16:22:26.498Z,18.72
2024-05-09T16:24:58.082Z,18.59
2024-05-09T16:27:29.668Z,18.38
2024-05-09T16:30:04.070Z,18.27
2024-05-09T16:32:40.801Z,18.13
2024-05-09T16:35:12.684Z,17.99
2024-05-09T16:37:44.215Z,17.96
2024-05-09T16:40:24.950Z,17.85
2024-05-09T16:43:05.898Z,17.73
2024-05-09T16:45:39.394Z,17.60
2024-05-09T16:48:12.199Z,17.57
2024-05-09T16:50:44.111Z,17.44
2024-05-09T16:53:15.735Z,17.36
2024-05-09T16:55:47.256Z,17.29
2024-05-09T16:58:19.269Z,17.22
2024-05-09T17:00:51.161Z,17.15
2024-05-09T17:03:23.595Z,17.09
2024-05-09T17:05:55.529Z,17.08
2024-05-09T17:08:27.087Z,17.05
2024-05-09T17:10:58.599Z,17.01
2024-05-09T17:13:32.220Z,16.94
2024-05-09T17:16:04.220Z,16.89
2024-05-09T17:18:35.999Z,16.85
2024-05-09T17:21:07.552Z,16.84
2024-05-09T17:23:39.415Z,16.82
2024-05-09T17:26:11.103Z,16.75
2024-05-09T17:28:43.002Z,16.70
2024-05-09T17:31:14.559Z,16.58
2024-05-09T17:33:46.503Z,16.47
2024-05-09T17:36:19.740Z,16.41
2024-05-09T17:38:51.265Z,16.40
2024-05-09T17:41:22.726Z,16.36
2024-05-09T17:43:54.326Z,16.37
2024-05-09T17:46:25.966Z,16.36
2024-05-09T17:49:00.410Z,16.29
2024-05-09T17:51:32.507Z,16.26
2024-05-09T17:54:03.960Z,16.23
2024-05-09T17:56:35.497Z,16.19
2024-05-09T17:59:10.029Z,16.17
2024-05-09T18:01:42.925Z,16.12
2024-05-09T18:04:14.573Z,16.07
2024-05-09T18:06:46.184Z,15.98
2024-05-09T18:09:17.731Z,15.89
2024-05-09T18:11:49.293Z,15.83
2024-05-09T18:14:20.802Z,15.77
2024-05-09T18:16:52.311Z,15.72
2024-05-09T18:19:23.835Z,15.67
2024-05-09T18:21:55.466Z,15.61
2024-05-09T18:24:26.945Z,15.56
2024-05-09T18:26:59.194Z,15.55
2024-05-09T18:29:30.785Z,15.50
2024-05-09T18:32:02.287Z,15.45
2024-05-09T18:34:33.843Z,15.38
2024-05-09T18:37:05.384Z,15.33
2024-05-09T18:39:37.017Z,15.29
2024-05-09T18:42:08.712Z,15.22
2024-05-09T18:44:40.272Z,15.16
2024-05-09T18:47:11.820Z,15.08
2024-05-09T18:49:43.489Z,14.99
2024-05-09T18:52:15.558Z,14.93
2024-05-09T18:54:47.751Z,14.86
2024-05-09T18:57:19.248Z,14.77
2024-05-09T18:59:51.061Z,14.73
2024-05-09T19:02:22.675Z,14.66
2024-05-09T19:04:54.349Z,14.57
2024-05-09T19:07:25.898Z,14.49
2024-05-09T19:09:57.525Z,14.42
2024-05-09T19:12:29.023Z,14.35
2024-05-09T19:15:00.451Z,14.27
2024-05-09T19:17:32.197Z,14.21
2024-05-09T19:20:05.751Z,14.17
2024-05-09T19:22:37.466Z,14.09
2024-05-09T19:25:08.998Z,14.04
2024-05-09T19:27:42.339Z,14.02
2024-05-09T19:30:21.076Z,13.97
2024-05-09T19:32:57.159Z,13.90
2024-05-09T19:35:28.678Z,13.87
2024-05-09T19:38:00.597Z,13.82
2024-05-09T19:40:33.917Z,13.77
2024-05-09T19:43:07.048Z,13.70
2024-05-09T19:45:38.888Z,13.69
2024-05-09T19:48:10.824Z,13.70
2024-05-09T19:50:44.507Z,13.65
2024-05-09T19:53:16.641Z,13.68
2024-05-09T19:55:48.152Z,13.67
2024-05-09T19:58:20.895Z,13.61
2024-05-09T20:00:52.535Z,13.57
2024-05-09T20:03:24.116Z,13.56
2024-05-09T20:05:55.786Z,13.54
2024-05-09T20:08:27.319Z,13.51
2024-05-09T20:10:58.824Z,13.52
2024-05-09T20:13:30.327Z,13.47
2024-05-09T20:16:01.844Z,13.46
2024-05-09T20:18:33.534Z,13.43
2024-05-09T20:21:06.482Z,13.40
2024-05-09T20:23:38.126Z,13.38
2024-05-09T20:26:09.680Z,13.36
2024-05-09T20:28:41.532Z,13.35
2024-05-09T20:31:20.863Z,13.37
2024-05-09T20:33:52.690Z,13.33
2024-05-09T20:36:24.192Z,13.30
2024-05-09T20:38:55.663Z,13.27
2024-05-09T20:41:27.648Z,13.25
2024-05-09T20:44:02.056Z,13.22
2024-05-09T20:46:33.542Z,13.18
2024-05-09T20:49:05.232Z,13.19
2024-05-09T20:51:37.017Z,13.16
2024-05-09T20:54:08.479Z,13.17
2024-05-09T20:56:40.078Z,13.20
2024-05-09T20:59:11.886Z,13.17
2024-05-09T21:01:48.084Z,13.19
2024-05-09T21:04:20.453Z,13.19
2024-05-09T21:06:52.087Z,13.15
2024-05-09T21:09:25.693Z,13.11
2024-05-09T21:11:57.288Z,13.07
2024-05-09T21:14:28.803Z,13.03
2024-05-09T21:17:00.519Z,12.97
2024-05-09T21:19:32.061Z,12.93
2024-05-09T21:22:03.681Z,12.94
2024-05-09T21:24:35.327Z,12.93
2024-05-09T21:27:06.920Z,12.89
2024-05-09T21:29:38.397Z,12.86
2024-05-09T21:32:09.973Z,12.78
2024-05-09T21:34:41.671Z,12.73
2024-05-09T21:37:13.295Z,12.71
2024-05-09T21:39:44.841Z,12.69
2024-05-09T21:42:16.330Z,12.71
2024-05-09T21:44:47.937Z,12.75
2024-05-09T21:47:19.431Z,12.77
2024-05-09T21:49:50.946Z,12.79
2024-05-09T21:52:22.551Z,12.81
2024-05-09T21:54:54.036Z,12.81
2024-05-09T21:57:25.583Z,12.83
2024-05-09T21:59:57.036Z,12.82
2024-05-09T22:02:28.772Z,12.81
2024-05-09T22:05:00.598Z,12.81
2024-05-09T22:07:32.227Z,12.80
2024-05-09T22:10:06.398Z,12.80
2024-05-09T22:12:41.290Z,12.82
2024-05-09T22:15:12.769Z,12.84
2024-05-09T22:17:44.412Z,12.88
2024-05-09T22:20:22.257Z,12.90
2024-05-09T22:23:00.388Z,12.88
2024-05-09T22:25:32.578Z,12.91
2024-05-09T22:28:05.376Z,12.88
2024-05-09T22:30:39.842Z,12.88
2024-05-09T22:33:12.579Z,12.88
2024-05-09T22:35:44.358Z,12.89
2024-05-09T22:38:15.855Z,12.87
2024-05-09T22:40:49.598Z,12.85
2024-05-09T22:43:23.917Z,12.85
2024-05-09T22:45:56.894Z,12.84
2024-05-09T22:48:28.497Z,12.82
2024-05-09T22:51:00.588Z,12.81
2024-05-09T22:53:32.047Z,12.81
2024-05-09T22:56:03.652Z,12.80
2024-05-09T22:58:35.121Z,12.77
2024-05-09T23:01:07.122Z,12.74
2024-05-09T23:03:38.800Z,12.72
2024-05-09T23:06:10.369Z,12.70
2024-05-09T23:08:41.795Z,12.67
2024-05-09T23:11:13.573Z,12.67
2024-05-09T23:13:45.230Z,12.64
2024-05-09T23:16:16.742Z,12.62
2024-05-09T23:18:48.324Z,12.62
2024-05-09T23:21:19.821Z,12.60
2024-05-09T23:23:51.239Z,12.59
2024-05-09T23:26:22.720Z,12.58
2024-05-09T23:28:54.162Z,12.55
2024-05-09T23:31:25.700Z,12.56
2024-05-09T23:33:57.549Z,12.55
2024-05-09T23:36:29.311Z,12.51
2024-05-09T23:39:00.803Z,12.48
2024-05-09T23:41:32.297Z,12.47
2024-05-09T23:44:03.860Z,12.47
2024-05-09T23:46:35.567Z,12.46
2024-05-09T23:49:07.202Z,12.45
2024-05-09T23:51:38.831Z,12.43
2024-05-09T23:54:10.335Z,12.42
2024-05-09T23:56:41.779Z,12.44
2024-05-09T23:59:13.221Z,12.42
